Time;durP1;ratioP1;P1;durP2;ratioP2;P2;SDS_P1;SDS_P2;PMS_P1;PMS_P2;Temp;Humidity;BMP_temperature;BMP_pressure;BME280_temperature;BME280_humidity;BME280_pressure;Samples;Min_cycle;Max_cycle;Signal;HPM_P1;HPM_P2
2024/04/05 00:01:03;;;;;;;24.58;5.00;;;;;;;10.84;100.00;100895.97;5042481;28;20051;-67
2024/04/05 00:03:28;;;;;;;24.52;5.00;;;;;;;10.83;100.00;100892.41;5044075;28;20037;-67
2024/04/05 00:05:54;;;;;;;24.08;4.95;;;;;;;10.87;100.00;100885.41;5043332;28;20045;-67
2024/04/05 00:08:21;;;;;;;24.77;5.07;;;;;;;10.82;100.00;100874.81;5042593;28;20032;-68
2024/04/05 00:10:46;;;;;;;24.88;4.88;;;;;;;10.78;100.00;100863.31;5044651;28;20117;-69
2024/04/05 00:13:12;;;;;;;26.27;5.28;;;;;;;10.76;100.00;100854.50;5041550;28;20065;-67
2024/04/05 00:15:40;;;;;;;25.00;5.03;;;;;;;10.69;100.00;100860.66;5044823;28;20052;-67
2024/04/05 00:18:06;;;;;;;25.05;5.10;;;;;;;10.72;100.00;100870.34;5040687;28;20083;-67
2024/04/05 00:20:31;;;;;;;24.15;4.88;;;;;;;10.66;100.00;100865.94;5043759;28;20120;-72
2024/04/05 00:22:56;;;;;;;25.58;5.03;;;;;;;10.61;100.00;100879.09;5042987;28;20036;-67
2024/04/05 00:25:23;;;;;;;24.88;5.35;;;;;;;10.62;100.00;100880.00;5042531;28;20045;-68
2024/04/05 00:27:48;;;;;;;25.23;5.07;;;;;;;10.63;100.00;100881.78;5042809;28;20040;-68
2024/04/05 00:30:14;;;;;;;22.85;4.60;;;;;;;10.65;100.00;100887.94;5045829;28;20029;-76
2024/04/05 00:32:39;;;;;;;26.40;5.20;;;;;;;10.64;100.00;100894.09;5041602;28;20030;-77
2024/04/05 00:35:05;;;;;;;27.73;5.55;;;;;;;10.63;100.00;100897.63;5044371;28;20036;-75
2024/04/05 00:37:30;;;;;;;25.95;5.47;;;;;;;10.64;100.00;100888.81;5041435;28;20111;-77
2024/04/05 00:39:55;;;;;;;24.65;5.05;;;;;;;10.64;100.00;100889.72;5042955;28;20038;-75
2024/04/05 00:42:21;;;;;;;25.45;5.10;;;;;;;10.65;100.00;100877.38;5043594;28;20048;-76
2024/04/05 00:44:46;;;;;;;26.95;5.45;;;;;;;10.67;100.00;100874.72;5041904;28;20093;-77
2024/04/05 00:47:11;;;;;;;24.77;4.78;;;;;;;10.73;100.00;100878.28;5043390;28;20033;-78
2024/04/05 00:49:37;;;;;;;25.15;5.43;;;;;;;10.70;100.00;100886.19;5040381;28;20040;-74
2024/04/05 00:52:03;;;;;;;25.85;5.32;;;;;;;10.67;100.00;100880.88;5042730;28;20037;-76
2024/04/05 00:54:29;;;;;;;24.92;5.10;;;;;;;10.62;100.00;100878.22;5040402;28;20389;-75
2024/04/05 00:56:56;;;;;;;24.13;5.40;;;;;;;10.58;100.00;100868.50;5042729;28;20025;-70
2024/04/05 00:59:23;;;;;;;25.67;5.20;;;;;;;10.56;100.00;100866.75;5042208;28;20108;-72
2024/04/05 01:01:48;;;;;;;27.85;5.47;;;;;;;10.52;100.00;100871.13;5043776;28;20029;-73
2024/04/05 01:04:14;;;;;;;25.45;5.57;;;;;;;10.48;100.00;100868.47;5040843;28;20129;-73
2024/04/05 01:06:39;;;;;;;25.67;6.10;;;;;;;10.40;100.00;100856.09;5041084;28;20040;-74
2024/04/05 01:09:05;;;;;;;27.33;5.40;;;;;;;10.32;100.00;100847.19;5043761;28;20033;-77
2024/04/05 01:11:31;;;;;;;29.45;6.20;;;;;;;10.32;100.00;100862.19;5042232;28;20040;-71
2024/04/05 01:13:56;;;;;;;26.75;5.78;;;;;;;10.30;100.00;100872.75;5046343;28;20025;-76
2024/04/05 01:16:22;;;;;;;26.95;5.80;;;;;;;10.25;100.00;100867.44;5047114;28;20502;-73
2024/04/05 01:18:48;;;;;;;29.10;5.68;;;;;;;10.22;100.00;100869.16;5045545;28;20025;-71
2024/04/05 01:21:13;;;;;;;26.58;5.47;;;;;;;10.19;100.00;100869.16;5044069;28;20119;-68
2024/04/05 01:23:42;;;;;;;25.60;5.65;;;;;;;10.18;100.00;100873.56;5040687;28;20034;-69
2024/04/05 01:26:08;;;;;;;26.00;5.32;;;;;;;10.17;100.00;100863.84;5048134;28;20021;-67
2024/04/05 01:28:34;;;;;;;26.98;5.53;;;;;;;10.19;100.00;100864.75;5045334;28;20030;-66
2024/04/05 01:30:59;;;;;;;25.33;5.43;;;;;;;10.20;100.00;100855.06;5046712;28;20491;-69
2024/04/05 01:33:25;;;;;;;25.02;5.38;;;;;;;10.21;100.00;100867.41;5046530;28;20037;-66
2024/04/05 01:35:50;;;;;;;26.48;5.53;;;;;;;10.17;100.00;100850.66;5045575;28;20499;-66
2024/04/05 01:38:16;;;;;;;24.58;4.97;;;;;;;10.17;100.00;100853.28;5047771;28;20533;-73
2024/04/05 01:40:41;;;;;;;25.73;4.88;;;;;;;10.16;100.00;100853.28;5044687;28;20329;-67
2024/04/05 01:43:07;;;;;;;24.88;5.40;;;;;;;10.11;100.00;100862.06;5047448;28;20055;-72
2024/04/05 01:45:32;;;;;;;26.85;5.25;;;;;;;10.11;100.00;100862.06;5045045;28;20112;-70
2024/04/05 01:47:57;;;;;;;24.80;5.00;;;;;;;10.08;100.00;100861.16;5046375;28;20112;-67
2024/04/05 01:50:23;;;;;;;27.00;5.90;;;;;;;10.01;100.00;100859.34;5046710;28;20037;-68
2024/04/05 01:52:48;;;;;;;26.25;5.45;;;;;;;9.94;100.00;100848.72;5044710;28;20021;-75
2024/04/05 01:55:14;;;;;;;26.30;5.57;;;;;;;9.90;100.00;100857.53;5047862;28;20032;-70
2024/04/05 01:57:39;;;;;;;27.00;5.43;;;;;;;9.86;100.00;100850.44;5040351;28;20151;-70
2024/04/05 02:00:06;;;;;;;30.67;5.72;;;;;;;9.84;100.00;100851.31;5045941;28;20103;-72
2024/04/05 02:02:32;;;;;;;25.60;5.35;;;;;;;9.83;100.00;100849.53;5045112;28;20032;-69
2024/04/05 02:04:57;;;;;;;25.70;5.93;;;;;;;9.79;100.00;100847.75;5045406;28;20042;-66
2024/04/05 02:07:23;;;;;;;26.23;5.63;;;;;;;9.76;100.00;100836.28;5046121;28;20048;-66
2024/04/05 02:09:50;;;;;;;26.48;5.60;;;;;;;9.75;100.00;100842.44;5044475;28;20026;-69
2024/04/05 02:12:16;;;;;;;25.25;5.65;;;;;;;9.76;100.00;100844.22;5047001;28;20037;-65
2024/04/05 02:14:42;;;;;;;25.73;5.95;;;;;;;9.77;100.00;100845.97;5043819;28;20123;-66
2024/04/05 02:17:08;;;;;;;27.67;5.63;;;;;;;9.81;100.00;100846.88;5043875;28;20476;-66
2024/04/05 02:19:33;;;;;;;26.77;5.90;;;;;;;9.88;100.00;100848.69;5046170;28;20037;-67
2024/04/05 02:21:58;;;;;;;25.10;5.47;;;;;;;9.94;100.00;100847.84;5045197;28;20032;-66
2024/04/05 02:24:24;;;;;;;26.67;6.18;;;;;;;9.98;100.00;100839.09;5043035;28;20036;-65
2024/04/05 02:26:50;;;;;;;25.55;5.78;;;;;;;10.02;100.00;100846.16;5044951;28;20033;-67
2024/04/05 02:29:16;;;;;;;26.15;6.10;;;;;;;10.03;100.00;100850.56;5043780;28;20021;-65
2024/04/05 02:31:41;;;;;;;26.80;5.90;;;;;;;10.06;100.00;100852.34;5046742;28;20144;-65
2024/04/05 02:34:06;;;;;;;25.63;5.90;;;;;;;10.11;100.00;100863.81;5042488;28;20034;-66
2024/04/05 02:36:32;;;;;;;26.48;6.15;;;;;;;10.13;100.00;100864.69;5045830;28;20025;-74
2024/04/05 02:38:57;;;;;;;24.58;5.75;;;;;;;10.19;100.00;100863.88;5044940;28;20468;-65
2024/04/05 02:41:23;;;;;;;25.60;6.20;;;;;;;10.24;100.00;100863.03;5044554;28;20038;-65
2024/04/05 02:43:48;;;;;;;26.27;6.28;;;;;;;10.28;100.00;100855.97;5045108;28;20464;-66
2024/04/05 02:46:13;;;;;;;25.77;5.82;;;;;;;10.25;100.00;100855.97;5043063;28;20033;-67
2024/04/05 02:48:39;;;;;;;26.20;5.78;;;;;;;10.32;100.00;100863.06;5046565;28;20045;-66
2024/04/05 02:51:04;;;;;;;27.20;6.15;;;;;;;10.36;100.00;100866.66;5044006;28;20056;-66
2024/04/05 02:53:30;;;;;;;25.33;6.22;;;;;;;10.38;100.00;100860.50;5043765;28;20022;-66
2024/04/05 02:55:55;;;;;;;26.08;6.47;;;;;;;10.36;100.00;100856.94;5045406;28;20032;-67
2024/04/05 02:58:20;;;;;;;26.17;6.10;;;;;;;10.32;100.00;100864.81;5043866;28;20026;-73
2024/04/05 03:00:48;;;;;;;24.15;5.95;;;;;;;10.31;100.00;100858.66;5046162;28;20083;-74
2024/04/05 03:03:13;;;;;;;24.02;5.70;;;;;;;10.37;100.00;100848.16;5043129;28;20076;-73
2024/04/05 03:05:39;;;;;;;23.38;5.72;;;;;;;10.43;100.00;100847.31;5045940;28;20053;-76
2024/04/05 03:08:06;;;;;;;26.70;6.18;;;;;;;10.48;100.00;100847.31;5043514;28;20466;-77
2024/04/05 03:10:31;;;;;;;24.95;5.55;;;;;;;10.46;100.00;100844.69;5045245;28;20469;-71
2024/04/05 03:12:57;;;;;;;23.88;5.80;;;;;;;10.46;100.00;100847.31;5044557;28;20048;-74
2024/04/05 03:15:22;;;;;;;24.15;5.85;;;;;;;10.50;100.00;100842.91;5043598;28;20021;-73
2024/04/05 03:17:47;;;;;;;24.88;6.13;;;;;;;10.52;100.00;100844.69;5046084;28;20428;-73
2024/04/05 03:20:13;;;;;;;24.33;5.97;;;;;;;10.55;100.00;100847.34;5042503;28;20049;-75
2024/04/05 03:22:39;;;;;;;23.42;5.70;;;;;;;10.57;100.00;100836.78;5045973;28;20025;-70
2024/04/05 03:25:05;;;;;;;24.20;5.57;;;;;;;10.57;100.00;100836.78;5043338;28;20495;-74
2024/04/05 03:27:30;;;;;;;23.95;5.43;;;;;;;10.57;100.00;100832.41;5044512;28;20033;-72
2024/04/05 03:29:56;;;;;;;25.40;6.05;;;;;;;10.59;100.00;100827.13;5043220;28;20032;-68
2024/04/05 03:32:21;;;;;;;23.50;6.00;;;;;;;10.59;100.00;100824.47;5043126;28;20034;-67
2024/04/05 03:34:47;;;;;;;28.30;6.63;;;;;;;10.62;100.00;100827.13;5044937;28;20071;-67
2024/04/05 03:37:12;;;;;;;24.73;5.72;;;;;;;10.68;100.00;100820.97;5042283;28;20507;-69
2024/04/05 03:39:38;;;;;;;23.60;5.50;;;;;;;10.72;100.00;100822.78;5045568;28;20089;-70
2024/04/05 03:42:03;;;;;;;24.52;6.10;;;;;;;10.77;100.00;100815.72;5043147;28;20028;-70
2024/04/05 03:44:29;;;;;;;27.65;6.18;;;;;;;10.78;100.00;100817.50;5043370;28;20115;-69
2024/04/05 03:46:54;;;;;;;25.80;5.95;;;;;;;10.77;100.00;100821.00;5044185;28;20028;-73
2024/04/05 03:49:19;;;;;;;25.05;5.55;;;;;;;10.75;100.00;100806.91;5042630;28;20515;-72
2024/04/05 03:51:45;;;;;;;24.00;5.78;;;;;;;10.69;100.00;100807.78;5045931;28;20102;-76
2024/04/05 03:54:10;;;;;;;24.58;5.45;;;;;;;10.61;100.00;100814.78;5041901;28;20048;-72
2024/04/05 03:56:35;;;;;;;23.52;5.80;;;;;;;10.53;100.00;100808.56;5044652;28;20392;-74
2024/04/05 03:59:01;;;;;;;28.00;6.03;;;;;;;10.45;100.00;100801.50;5043291;28;20479;-71
2024/04/05 04:01:26;;;;;;;24.63;5.63;;;;;;;10.39;100.00;100782.09;5043245;28;20068;-73
2024/04/05 04:03:52;;;;;;;22.77;5.32;;;;;;;10.34;100.00;100794.41;5044395;28;20032;-70
2024/04/05 04:06:17;;;;;;;24.33;5.93;;;;;;;10.32;100.00;100791.72;5041807;28;20050;-72
2024/04/05 04:08:42;;;;;;;23.73;5.38;;;;;;;10.33;100.00;100809.34;5045795;28;20033;-74
2024/04/05 04:11:08;;;;;;;24.67;5.80;;;;;;;10.34;100.00;100797.94;5043358;28;20029;-67
2024/04/05 04:13:33;;;;;;;23.95;5.75;;;;;;;10.37;100.00;100797.03;5044660;28;20026;-66
2024/04/05 04:15:59;;;;;;;23.50;5.63;;;;;;;10.37;100.00;100795.31;5043886;28;20025;-67
2024/04/05 04:18:25;;;;;;;23.77;5.43;;;;;;;10.37;100.00;100792.66;5042199;28;20021;-77
2024/04/05 04:20:51;;;;;;;23.70;5.40;;;;;;;10.38;100.00;100793.53;5042919;28;20037;-77
2024/04/05 04:23:17;;;;;;;23.08;5.75;;;;;;;10.37;100.00;100792.66;5045244;28;20017;-77
2024/04/05 04:25:42;;;;;;;22.48;5.65;;;;;;;10.39;100.00;100797.97;5042442;28;20045;-78
2024/04/05 04:28:08;;;;;;;25.42;5.78;;;;;;;10.43;100.00;100797.97;5045018;28;20025;-78
2024/04/05 04:30:33;;;;;;;23.98;5.90;;;;;;;10.51;100.00;100803.28;5043176;28;20061;-78
2024/04/05 04:32:59;;;;;;;24.75;6.00;;;;;;;10.55;100.00;100805.06;5046425;28;20029;-76
2024/04/05 04:35:25;;;;;;;23.77;5.60;;;;;;;10.61;100.00;100805.06;5042878;28;20029;-77
2024/04/05 04:37:52;;;;;;;22.50;5.60;;;;;;;10.67;100.00;100806.88;5044100;28;20116;-78
2024/04/05 04:40:18;;;;;;;24.90;5.55;;;;;;;10.70;100.00;100806.88;5041825;28;20025;-78
2024/04/05 04:42:44;;;;;;;24.25;5.43;;;;;;;10.74;100.00;100800.72;5044026;28;20078;-78
2024/04/05 04:45:10;;;;;;;24.08;5.60;;;;;;;10.77;100.00;100795.44;5040379;28;20091;-77
2024/04/05 04:47:39;;;;;;;23.00;5.20;;;;;;;10.79;100.00;100793.69;5044202;28;20673;-77
2024/04/05 04:50:05;;;;;;;24.45;5.65;;;;;;;10.81;100.00;100791.94;5041898;28;20059;-66
2024/04/05 04:52:31;;;;;;;23.58;5.47;;;;;;;10.87;100.00;100788.41;5042813;28;20021;-66
2024/04/05 04:54:57;;;;;;;21.65;5.07;;;;;;;10.90;100.00;100795.47;5041899;28;20033;-66
2024/04/05 04:57:25;;;;;;;22.80;5.32;;;;;;;10.89;100.00;100794.63;5041860;28;20025;-66
2024/04/05 04:59:51;;;;;;;22.50;5.15;;;;;;;10.84;100.00;100787.53;5041748;28;20029;-76
2024/04/05 05:02:17;;;;;;;25.63;6.07;;;;;;;10.82;100.00;100796.34;5041149;28;20473;-72
2024/04/05 05:04:42;;;;;;;25.13;5.95;;;;;;;10.78;100.00;100791.91;5044044;28;20459;-70
2024/04/05 05:07:08;;;;;;;23.50;5.53;;;;;;;10.77;100.00;100800.72;5041389;28;20052;-75
2024/04/05 05:09:33;;;;;;;26.75;5.55;;;;;;;10.76;100.00;100782.22;5042531;28;20029;-75
2024/04/05 05:11:58;;;;;;;23.38;5.85;;;;;;;10.72;100.00;100780.47;5042612;28;20029;-79
2024/04/05 05:14:25;;;;;;;24.50;5.80;;;;;;;10.65;100.00;100784.84;5042020;28;20028;-75
2024/04/05 05:16:51;;;;;;;23.38;5.80;;;;;;;10.66;100.00;100776.03;5043633;28;20037;-79
2024/04/05 05:19:16;;;;;;;26.08;6.32;;;;;;;10.66;100.00;100767.22;5040672;28;20033;-72
2024/04/05 05:21:42;;;;;;;26.45;6.25;;;;;;;10.67;100.00;100766.34;5044419;28;20060;-73
2024/04/05 05:24:07;;;;;;;24.33;6.15;;;;;;;10.67;100.00;100771.63;5041321;28;20362;-69
2024/04/05 05:26:32;;;;;;;23.50;6.10;;;;;;;10.69;100.00;100740.78;5043042;28;20065;-67
2024/04/05 05:28:58;;;;;;;24.05;6.28;;;;;;;10.68;100.00;100723.16;5042683;28;20033;-74
2024/04/05 05:31:23;;;;;;;25.23;6.35;;;;;;;10.70;100.00;100729.31;5041506;28;20132;-74
2024/04/05 05:33:49;;;;;;;23.70;6.38;;;;;;;10.70;100.00;100722.25;5043940;28;20531;-74
2024/04/05 05:36:15;;;;;;;24.15;6.50;;;;;;;10.73;100.00;100719.66;5040762;28;20095;-76
2024/04/05 05:38:41;;;;;;;25.33;6.53;;;;;;;10.74;100.00;100721.41;5043862;28;20029;-71
2024/04/05 05:41:06;;;;;;;26.08;6.55;;;;;;;10.78;100.00;100720.53;5041572;28;20029;-74
2024/04/05 05:43:32;;;;;;;25.58;6.70;;;;;;;10.81;100.00;100717.88;5043003;28;20037;-69
2024/04/05 05:45:58;;;;;;;23.50;6.53;;;;;;;10.87;100.00;100729.38;5042652;28;20075;-68
2024/04/05 05:48:23;;;;;;;24.63;6.75;;;;;;;10.89;100.00;100709.06;5041515;28;20086;-77
2024/04/05 05:50:49;;;;;;;26.95;6.60;;;;;;;10.93;100.00;100695.84;5044208;28;20112;-73
2024/04/05 05:53:14;;;;;;;22.83;6.00;;;;;;;10.95;100.00;100679.97;5040805;28;20034;-71
2024/04/05 05:55:39;;;;;;;25.10;6.82;;;;;;;10.98;100.00;100661.50;5044975;28;20037;-75
2024/04/05 05:58:05;;;;;;;23.00;6.32;;;;;;;10.98;100.00;100675.59;5043099;28;20057;-67
2024/04/05 06:00:30;;;;;;;24.02;6.45;;;;;;;10.97;100.00;100672.94;5043710;28;20487;-68
2024/04/05 06:02:56;;;;;;;25.48;6.13;;;;;;;10.98;100.00;100664.16;5046481;28;20491;-74
2024/04/05 06:05:23;;;;;;;24.80;6.07;;;;;;;10.98;100.00;100686.19;5044489;28;20416;-67
2024/04/05 06:07:49;;;;;;;23.52;6.25;;;;;;;11.00;100.00;100683.53;5046818;28;20025;-77
2024/04/05 06:10:15;;;;;;;25.02;6.32;;;;;;;11.04;100.00;100689.69;5047109;28;20470;-78
2024/04/05 06:12:41;;;;;;;23.67;6.03;;;;;;;11.05;100.00;100683.53;5045555;28;20085;-78
2024/04/05 06:15:07;;;;;;;23.67;5.82;;;;;;;11.09;100.00;100686.16;5045043;28;20481;-76
2024/04/05 06:17:35;;;;;;;23.25;6.10;;;;;;;11.13;100.00;100698.50;5047198;28;20100;-77
2024/04/05 06:20:05;;;;;;;23.13;6.05;;;;;;;11.14;100.00;100687.06;5046210;28;20056;-72
2024/04/05 06:22:32;;;;;;;23.90;6.25;;;;;;;11.20;100.00;100691.47;5047326;28;20037;-77
2024/04/05 06:24:57;;;;;;;22.85;5.78;;;;;;;11.22;100.00;100681.75;5046751;28;20025;-78
2024/04/05 06:27:23;;;;;;;22.17;5.80;;;;;;;11.27;100.00;100684.38;5044573;28;20392;-78
2024/04/05 06:29:52;;;;;;;24.38;6.18;;;;;;;11.34;100.00;100671.16;5044702;28;20112;-74
2024/04/05 06:32:18;;;;;;;23.60;5.80;;;;;;;11.39;100.00;100665.84;5046552;28;20087;-77
2024/04/05 06:34:45;;;;;;;23.50;5.63;;;;;;;11.44;100.00;100650.84;5044609;28;20021;-78
2024/04/05 06:37:11;;;;;;;20.25;5.30;;;;;;;11.51;100.00;100662.31;5047528;28;20035;-78
2024/04/05 06:39:37;;;;;;;22.25;5.60;;;;;;;11.57;100.00;100656.97;5045316;28;20068;-75
2024/04/05 06:42:03;;;;;;;21.70;5.25;;;;;;;11.62;100.00;100647.28;5044616;28;20033;-70
2024/04/05 06:44:35;;;;;;;21.05;4.90;;;;;;;11.69;100.00;100629.59;5045801;28;20435;-73
2024/04/05 06:47:04;;;;;;;20.52;4.88;;;;;;;11.75;100.00;100634.88;5045632;28;20383;-73
2024/04/05 06:49:30;;;;;;;21.80;4.85;;;;;;;11.79;100.00;100623.34;5044373;28;20491;-69
2024/04/05 06:51:56;;;;;;;19.75;4.85;;;;;;;11.89;100.00;100620.69;5044663;28;20029;-70
2024/04/05 06:54:21;;;;;;;21.17;5.00;;;;;;;11.93;100.00;100602.16;5047034;28;20029;-77
2024/04/05 06:56:47;;;;;;;19.92;4.55;;;;;;;12.02;100.00;100603.88;5043854;28;20032;-76
2024/04/05 06:59:12;;;;;;;21.17;4.82;;;;;;;12.08;100.00;100601.19;5046932;28;20037;-77
2024/04/05 07:01:37;;;;;;;19.13;4.65;;;;;;;12.15;100.00;100610.88;5043752;28;20022;-71
2024/04/05 07:04:04;;;;;;;21.58;4.90;;;;;;;12.20;100.00;100616.13;5043787;28;20485;-67
2024/04/05 07:06:32;;;;;;;21.25;4.65;;;;;;;12.27;100.00;100620.50;5044689;28;20041;-67
2024/04/05 07:08:58;;;;;;;18.35;4.35;;;;;;;12.33;100.00;100616.94;5044380;28;20054;-71
2024/04/05 07:11:23;;;;;;;19.13;4.18;;;;;;;12.38;100.00;100604.56;5045365;28;20116;-77
2024/04/05 07:13:48;;;;;;;18.00;4.43;;;;;;;12.40;100.00;100602.75;5042934;28;20164;-77
2024/04/05 07:16:15;;;;;;;20.25;4.32;;;;;;;12.43;100.00;100586.81;5046662;28;20040;-70
2024/04/05 07:18:41;;;;;;;19.27;4.07;;;;;;;12.45;100.00;100586.81;5043038;28;20102;-75
2024/04/05 07:21:07;;;;;;;17.35;3.80;;;;;;;12.48;100.00;100579.72;5043916;28;20545;-74
2024/04/05 07:23:33;;;;;;;18.80;4.07;;;;;;;12.52;100.00;100559.34;5043052;28;20480;-77
2024/04/05 07:25:59;;;;;;;18.88;3.70;;;;;;;12.58;100.00;100561.09;5042717;28;20030;-70
2024/04/05 07:28:25;;;;;;;20.52;4.20;;;;;;;12.62;100.00;100562.81;5045205;28;20044;-71
2024/04/05 07:30:50;;;;;;;18.75;3.90;;;;;;;12.63;100.00;100562.81;5043018;28;20147;-75
2024/04/05 07:33:15;;;;;;;19.05;4.10;;;;;;;12.53;100.00;100546.09;5046039;28;20104;-74
2024/04/05 07:35:41;;;;;;;19.40;4.30;;;;;;;12.38;100.00;100548.88;5042600;28;20515;-74
2024/04/05 07:38:06;;;;;;;20.33;4.50;;;;;;;12.34;100.00;100555.97;5044953;28;20045;-70
2024/04/05 07:40:35;;;;;;;19.17;4.28;;;;;;;12.27;100.00;100542.78;5043744;28;20039;-70
2024/04/05 07:43:01;;;;;;;18.05;3.92;;;;;;;12.27;100.00;100529.53;5044225;28;20026;-76
2024/04/05 07:45:27;;;;;;;17.70;4.00;;;;;;;12.36;100.00;100537.41;5044475;28;20082;-68
2024/04/05 07:47:53;;;;;;;19.25;4.45;;;;;;;12.31;100.00;100534.78;5042758;28;20029;-67
2024/04/05 07:50:19;;;;;;;18.70;4.32;;;;;;;12.13;100.00;100550.81;5044355;28;20041;-68
2024/04/05 07:52:46;;;;;;;18.75;4.10;;;;;;;11.98;100.00;100539.41;5042189;28;20033;-66
2024/04/05 07:55:11;;;;;;;17.90;4.15;;;;;;;11.93;100.00;100530.63;5045426;28;20471;-68
2024/04/05 07:57:42;;;;;;;20.35;4.50;;;;;;;11.86;100.00;100523.59;5042658;28;20159;-77
2024/04/05 08:00:13;;;;;;;19.77;4.70;;;;;;;11.84;100.00;100528.03;5045070;28;20091;-71
2024/04/05 08:02:49;;;;;;;19.98;4.60;;;;;;;11.84;100.00;100528.91;5042734;28;20076;-75
2024/04/05 08:05:15;;;;;;;17.58;4.70;;;;;;;11.91;100.00;100523.56;5037920;28;20396;-75
2024/04/05 08:07:42;;;;;;;21.17;4.75;;;;;;;11.92;100.00;100510.28;5044811;28;20453;-77
2024/04/05 08:10:09;;;;;;;21.08;4.75;;;;;;;11.93;100.00;100528.00;5041456;28;20695;-73
2024/04/05 08:12:35;;;;;;;19.13;4.72;;;;;;;11.94;100.00;100523.56;5044223;28;20021;-70
2024/04/05 08:15:01;;;;;;;19.23;4.60;;;;;;;11.97;100.00;100515.59;5043581;28;20039;-73
2024/04/05 08:17:26;;;;;;;19.90;4.40;;;;;;;12.03;100.00;100519.09;5043013;28;20021;-75
2024/04/05 08:19:52;;;;;;;19.85;4.60;;;;;;;12.11;100.00;100521.69;5044475;28;20033;-67
2024/04/05 08:22:17;;;;;;;18.80;4.38;;;;;;;12.14;100.00;100504.88;5041419;28;20057;-69
2024/04/05 08:24:43;;;;;;;18.50;4.22;;;;;;;12.18;100.00;100502.19;5044649;28;20087;-76
2024/04/05 08:27:09;;;;;;;18.40;4.20;;;;;;;12.19;100.00;100493.38;5042310;28;20423;-74
2024/04/05 08:29:35;;;;;;;20.55;4.30;;;;;;;12.24;100.00;100484.50;5044045;28;20539;-73
2024/04/05 08:32:00;;;;;;;19.08;3.92;;;;;;;12.29;100.00;100493.28;5043330;28;20109;-68
2024/04/05 08:34:25;;;;;;;18.55;4.28;;;;;;;12.32;100.00;100507.41;5042035;28;20029;-67
2024/04/05 08:36:51;;;;;;;18.52;4.03;;;;;;;12.35;100.00;100511.81;5046060;28;20090;-78
2024/04/05 08:39:20;;;;;;;18.27;3.90;;;;;;;12.31;100.00;100534.78;5042452;28;20420;-77
2024/04/05 08:41:47;;;;;;;18.50;3.85;;;;;;;12.32;100.00;100504.75;5042651;28;20072;-77
2024/04/05 08:44:13;;;;;;;17.30;4.00;;;;;;;12.21;100.00;100511.91;5044532;28;20029;-81
2024/04/05 08:46:42;;;;;;;19.15;4.20;;;;;;;12.14;100.00;100549.94;5043168;28;20051;-77
2024/04/05 08:49:08;;;;;;;17.52;3.97;;;;;;;12.05;100.00;100564.13;5044971;28;20040;-81
2024/04/05 08:51:34;;;;;;;17.23;4.13;;;;;;;12.04;100.00;100591.50;5042634;28;20116;-80
2024/04/05 08:54:02;;;;;;;18.58;4.22;;;;;;;12.06;100.00;100586.19;5045387;28;20116;-67
2024/04/05 08:56:31;;;;;;;20.15;4.68;;;;;;;12.04;100.00;100588.84;5046228;28;20424;-73
2024/04/05 08:59:09;;;;;;;18.58;4.40;;;;;;;12.05;100.00;100605.63;5044638;28;20038;-78
2024/04/05 09:01:34;;;;;;;18.75;4.53;;;;;;;12.06;100.00;100595.03;5038444;28;20061;-83
2024/04/05 09:04:00;;;;;;;18.80;4.18;;;;;;;12.11;100.00;100601.16;5045049;28;20033;-72
2024/04/05 09:06:25;;;;;;;15.93;3.85;;;;;;;12.08;100.00;100593.25;5042632;28;20076;-81
2024/04/05 09:08:53;;;;;;;15.23;3.60;;;;;;;12.07;100.00;100595.91;5046083;28;20037;-82
2024/04/05 09:11:20;;;;;;;19.88;4.40;;;;;;;12.05;100.00;100597.69;5041874;28;20041;-78
2024/04/05 09:13:56;;;;;;;16.98;3.83;;;;;;;12.03;100.00;100597.69;5041836;28;20128;-73
2024/04/05 09:16:23;;;;;;;16.35;3.70;;;;;;;12.07;100.00;100599.41;5044187;28;20116;-80
2024/04/05 09:18:49;;;;;;;15.40;3.70;;;;;;;12.10;100.00;100582.63;5043295;28;20445;-72
2024/04/05 09:21:15;;;;;;;16.20;3.90;;;;;;;12.11;100.00;100592.34;5040544;28;20034;-69
2024/04/05 09:23:49;;;;;;;15.15;3.67;;;;;;;12.12;100.00;100592.34;5045051;28;20025;-70
2024/04/05 09:26:24;;;;;;;17.63;3.70;;;;;;;12.18;100.00;100584.34;5042675;28;20034;-71
2024/04/05 09:29:00;;;;;;;14.38;4.00;;;;;;;12.17;100.00;100594.94;5043384;28;20037;-71
2024/04/05 09:31:26;;;;;;;15.07;3.72;;;;;;;12.20;100.00;100586.97;5044054;28;20025;-70
2024/04/05 09:34:14;;;;;;;13.70;3.50;;;;;;;12.28;100.00;100605.50;5044761;28;20494;-66
2024/04/05 09:36:40;;;;;;;15.32;3.53;;;;;;;12.31;100.00;100606.34;5042629;28;20064;-71
2024/04/05 09:39:06;;;;;;;15.18;3.65;;;;;;;12.33;100.00;100609.00;5049439;28;20036;-67
2024/04/05 09:41:33;;;;;;;15.32;3.45;;;;;;;12.35;100.00;100591.31;5044317;28;20404;-82
2024/04/05 09:44:03;;;;;;;15.95;3.50;;;;;;;12.34;100.00;100576.31;5048558;28;20037;-82
2024/04/05 09:46:37;;;;;;;14.48;3.20;;;;;;;12.40;100.00;100567.44;5046120;28;20044;-81
2024/04/05 09:49:03;;;;;;;16.45;3.70;;;;;;;12.35;100.00;100554.22;5047936;28;20426;-81
2024/04/05 09:51:52;;;;;;;16.95;3.60;;;;;;;12.35;100.00;100540.97;5045849;28;20079;-81
2024/04/05 09:54:21;;;;;;;13.90;3.70;;;;;;;12.45;100.00;100534.69;5040285;28;20025;-81
2024/04/05 09:56:52;;;;;;;15.30;3.97;;;;;;;12.62;100.00;100549.56;5046558;28;20029;-81
2024/04/05 09:59:27;;;;;;;15.10;3.40;;;;;;;12.85;100.00;100538.75;5045641;28;20048;-72
2024/04/05 10:01:53;;;;;;;16.77;3.80;;;;;;;13.27;100.00;100523.25;5045695;28;20029;-76
2024/04/05 10:04:19;;;;;;;13.43;3.17;;;;;;;13.82;100.00;100539.41;5045405;28;20381;-74
2024/04/05 10:06:45;;;;;;;12.60;3.10;;;;;;;14.25;100.00;100525.47;5046869;28;20029;-75
2024/04/05 10:09:18;;;;;;;15.18;3.20;;;;;;;14.57;100.00;100526.72;5048272;28;20493;-70
2024/04/05 10:11:45;;;;;;;11.65;2.90;;;;;;;14.58;100.00;100512.53;5044841;28;20026;-67
2024/04/05 10:14:20;;;;;;;12.02;3.00;;;;;;;14.59;100.00;100515.16;5047297;28;20040;-66
2024/04/05 10:16:47;;;;;;;10.88;2.72;;;;;;;14.71;100.00;100529.16;5045356;28;20025;-66
2024/04/05 10:19:12;;;;;;;8.82;2.60;;;;;;;14.94;100.00;100523.44;5046872;28;20029;-66
2024/04/05 10:21:37;;;;;;;12.88;2.63;;;;;;;15.11;100.00;100523.13;5043757;28;20049;-67
2024/04/05 10:24:05;;;;;;;13.38;2.83;;;;;;;15.14;100.00;100528.38;5047204;28;20136;-66
2024/04/05 10:26:33;;;;;;;10.75;2.65;;;;;;;15.28;100.00;100504.16;5043902;28;20492;-67
2024/04/05 10:29:06;;;;;;;9.88;2.50;;;;;;;15.42;100.00;100495.88;5046349;28;20033;-67
2024/04/05 10:31:36;;;;;;;8.45;2.50;;;;;;;15.46;100.00;100502.88;5044168;28;20033;-67
2024/04/05 10:34:03;;;;;;;7.32;2.45;;;;;;;15.35;100.00;100505.78;5046946;28;20025;-66
2024/04/05 10:36:30;;;;;;;9.38;2.55;;;;;;;15.31;100.00;100498.75;5044175;28;20025;-73
2024/04/05 10:38:56;;;;;;;8.90;2.45;;;;;;;15.35;100.00;100513.78;5045858;28;20432;-73
2024/04/05 10:41:21;;;;;;;11.82;2.58;;;;;;;15.68;100.00;100493.53;5045008;28;20037;-66
2024/04/05 10:43:47;;;;;;;9.70;2.50;;;;;;;15.95;100.00;100477.84;5044483;28;20369;-67
2024/04/05 10:46:13;;;;;;;12.70;2.60;;;;;;;16.21;100.00;100484.34;5046102;28;20135;-66
2024/04/05 10:48:39;;;;;;;9.50;2.47;;;;;;;16.17;100.00;100490.66;5044311;28;20026;-79
2024/04/05 10:51:04;;;;;;;10.23;2.42;;;;;;;16.18;100.00;100492.41;5040471;28;20095;-79
2024/04/05 10:53:30;;;;;;;8.23;2.30;;;;;;;16.24;100.00;100502.94;5047145;28;20365;-79
2024/04/05 10:55:55;;;;;;;10.77;2.60;;;;;;;16.24;100.00;100502.94;5045357;28;20031;-79
2024/04/05 10:58:21;;;;;;;12.52;2.80;;;;;;;16.25;100.00;100491.34;5044807;28;20037;-77
2024/04/05 11:00:46;;;;;;;11.27;2.60;;;;;;;16.16;100.00;100502.22;5045806;28;20037;-78
2024/04/05 11:03:16;;;;;;;9.48;2.50;;;;;;;16.03;100.00;100498.97;5043347;28;20028;-78
2024/04/05 11:05:44;;;;;;;10.65;2.40;;;;;;;16.00;100.00;100494.63;5045814;28;20057;-78